Time;durP1;ratioP1;P1;durP2;ratioP2;P2;SDS_P1;SDS_P2;PMS_P1;PMS_P2;Temp;Humidity;BMP_temperature;BMP_pressure;BME280_temperature;BME280_humidity;BME280_pressure;Samples;Min_cycle;Max_cycle;Signal;HPM_P1;HPM_P2
2023/04/17 00:02:28;;;;;;;0.90;0.90;;;8.70;99.90;;;;;;5206473;28;20059;-68
2023/04/17 00:05:04;;;;;;;0.93;0.93;;;8.70;99.90;;;;;;5215087;28;20040;-69
2023/04/17 00:07:40;;;;;;;0.93;0.85;;;8.70;99.90;;;;;;5223050;28;20043;-69
2023/04/17 00:10:14;;;;;;;1.02;1.00;;;8.70;99.90;;;;;;5231623;28;20655;-69
2023/04/17 00:12:45;;;;;;;;;;;8.70;99.90;;;;;;5230851;28;20043;-69
2023/04/17 00:15:19;;;;;;;0.52;0.52;;;8.70;99.90;;;;;;5204837;28;19909;-70
2023/04/17 00:17:50;;;;;;;1.60;1.50;;;8.70;99.90;;;;;;5198217;28;20033;-70
2023/04/17 00:20:21;;;;;;;1.08;0.98;;;8.70;99.90;;;;;;5209810;28;20037;-70
2023/04/17 00:22:54;;;;;;;1.55;1.23;;;8.70;99.90;;;;;;5176740;28;20037;-66
2023/04/17 00:25:25;;;;;;;1.23;1.08;;;8.70;99.90;;;;;;5180239;28;20051;-68
2023/04/17 00:27:56;;;;;;;1.85;1.00;;;8.70;99.90;;;;;;5176050;28;20512;-67
2023/04/17 00:30:28;;;;;;;1.80;1.52;;;8.70;99.90;;;;;;5204255;28;20030;-67
2023/04/17 00:33:02;;;;;;;1.40;1.30;;;8.70;99.90;;;;;;5213511;28;20040;-68
2023/04/17 00:35:34;;;;;;;1.13;0.95;;;8.70;99.90;;;;;;5213274;28;20031;-70
2023/04/17 00:38:07;;;;;;;1.13;1.02;;;8.70;99.90;;;;;;5213991;28;20033;-69
2023/04/17 00:40:41;;;;;;;1.27;1.17;;;8.70;99.90;;;;;;5194991;28;20039;-69
2023/04/17 00:43:20;;;;;;;1.85;1.35;;;8.70;99.90;;;;;;5186457;28;20041;-67
2023/04/17 00:45:55;;;;;;;0.88;0.88;;;8.70;99.90;;;;;;5172341;28;20035;-69
2023/04/17 00:48:31;;;;;;;0.65;0.65;;;8.80;99.90;;;;;;5174767;28;20045;-70
2023/04/17 00:51:06;;;;;;;1.73;1.63;;;8.80;99.90;;;;;;5193858;28;20382;-69
2023/04/17 00:53:38;;;;;;;;;;;8.80;99.90;;;;;;5159265;28;20406;-70
2023/04/17 00:56:12;;;;;;;1.20;1.10;;;8.80;99.90;;;;;;5179080;28;20243;-69
2023/04/17 00:58:52;;;;;;;1.73;1.52;;;8.80;99.90;;;;;;5184829;28;20037;-69
2023/04/17 01:04:19;;;;;;;1.13;1.13;;;8.80;99.90;;;;;;5168022;28;20057;-68
2023/04/17 01:06:52;;;;;;;0.93;0.93;;;8.80;99.90;;;;;;5158637;28;20041;-68
2023/04/17 01:09:27;;;;;;;1.20;1.10;;;8.80;99.90;;;;;;5188780;28;20216;-68
2023/04/17 01:12:22;;;;;;;2.83;1.67;;;8.70;99.90;;;;;;5169378;28;20044;-68
2023/04/17 01:14:58;;;;;;;;;;;8.70;99.90;;;;;;5158465;28;20036;-69
2023/04/17 01:17:29;;;;;;;1.92;1.77;;;8.70;99.90;;;;;;5155318;28;19919;-68
2023/04/17 01:20:09;;;;;;;1.60;1.48;;;8.70;99.90;;;;;;5154584;28;20038;-68
2023/04/17 01:22:43;;;;;;;0.95;0.95;;;8.60;99.90;;;;;;5140038;28;20038;-68
2023/04/17 01:25:14;;;;;;;1.80;1.70;;;8.70;99.90;;;;;;5145546;28;20045;-68
2023/04/17 01:27:49;;;;;;;1.00;1.00;;;8.60;99.90;;;;;;5153321;28;20358;-68
2023/04/17 01:30:21;;;;;;;1.00;1.00;;;8.70;99.90;;;;;;5174737;28;20326;-68
2023/04/17 01:32:55;;;;;;;0.90;0.90;;;8.70;99.90;;;;;;5192498;28;20541;-67
2023/04/17 01:35:26;;;;;;;0.57;0.57;;;8.70;99.90;;;;;;5160836;28;20037;-68
2023/04/17 01:38:02;;;;;;;1.35;1.25;;;8.70;99.90;;;;;;5150937;28;20060;-68
2023/04/17 01:40:36;;;;;;;1.00;1.00;;;8.70;99.90;;;;;;5154203;28;20318;-68
2023/04/17 01:43:10;;;;;;;1.35;1.25;;;8.70;99.90;;;;;;5139299;28;20034;-68
2023/04/17 01:45:41;;;;;;;2.38;1.85;;;8.60;99.90;;;;;;5170458;28;20031;-68
2023/04/17 01:48:12;;;;;;;2.25;1.42;;;8.60;99.90;;;;;;5192945;28;20047;-68
2023/04/17 01:50:44;;;;;;;1.58;1.48;;;8.70;99.90;;;;;;5155790;28;20034;-68
2023/04/17 01:53:15;;;;;;;1.15;1.15;;;8.70;99.90;;;;;;5191464;28;20029;-68
2023/04/17 01:55:49;;;;;;;0.82;0.82;;;8.60;99.90;;;;;;5173431;28;20025;-68
2023/04/17 01:58:26;;;;;;;2.08;1.65;;;8.60;99.90;;;;;;5156455;28;20044;-68
2023/04/17 02:00:58;;;;;;;0.70;0.70;;;8.60;99.90;;;;;;5168410;28;20030;-68
2023/04/17 02:03:30;;;;;;;1.30;1.02;;;8.60;99.90;;;;;;5158117;28;20044;-68
2023/04/17 02:06:05;;;;;;;2.28;1.63;;;8.50;99.90;;;;;;5143801;28;20053;-69
2023/04/17 02:08:39;;;;;;;1.33;1.33;;;8.50;99.90;;;;;;5152403;28;20052;-68
2023/04/17 02:11:12;;;;;;;2.05;1.25;;;8.50;99.90;;;;;;5152629;28;20030;-69
2023/04/17 02:13:43;;;;;;;0.80;0.80;;;8.50;99.90;;;;;;5151515;28;20040;-68
2023/04/17 02:16:20;;;;;;;1.15;1.10;;;8.50;99.90;;;;;;5167195;28;20044;-68
2023/04/17 02:18:51;;;;;;;2.03;1.80;;;8.50;99.90;;;;;;5153406;28;20216;-68
2023/04/17 02:21:25;;;;;;;1.10;1.00;;;8.50;99.90;;;;;;5169345;28;20310;-67
2023/04/17 02:24:01;;;;;;;1.70;1.60;;;8.40;99.90;;;;;;5150894;28;20216;-68
2023/04/17 02:26:33;;;;;;;1.30;1.17;;;8.40;99.90;;;;;;5170456;28;20034;-67
2023/04/17 02:29:06;;;;;;;1.30;1.30;;;8.40;99.90;;;;;;5152278;28;20034;-68
2023/04/17 02:31:40;;;;;;;1.52;1.35;;;8.40;99.90;;;;;;5167372;28;20030;-68
2023/04/17 02:34:14;;;;;;;2.03;1.92;;;8.40;99.90;;;;;;5169232;28;20038;-68
2023/04/17 02:36:47;;;;;;;2.63;1.50;;;8.40;99.90;;;;;;5177358;28;20048;-68
2023/04/17 02:39:22;;;;;;;1.63;1.53;;;8.50;99.90;;;;;;5151631;28;20597;-68
2023/04/17 02:41:56;;;;;;;;;;;8.40;99.90;;;;;;5132328;28;20287;-68
2023/04/17 02:44:27;;;;;;;1.75;1.65;;;8.50;99.90;;;;;;5155265;28;19924;-68
2023/04/17 02:46:58;;;;;;;1.17;1.17;;;8.50;99.90;;;;;;5153607;28;20041;-68
2023/04/17 02:49:30;;;;;;;1.05;0.90;;;8.50;99.90;;;;;;5156817;28;20041;-68
2023/04/17 02:52:01;;;;;;;1.67;1.58;;;8.50;99.90;;;;;;5178614;28;20030;-67
2023/04/17 02:54:34;;;;;;;1.60;1.45;;;8.50;99.90;;;;;;5157891;28;20039;-68
2023/04/17 02:57:06;;;;;;;1.00;1.00;;;8.50;99.90;;;;;;5153975;28;20557;-68
2023/04/17 02:59:37;;;;;;;0.88;0.88;;;8.60;99.90;;;;;;5138564;28;20037;-68
2023/04/17 03:02:13;;;;;;;1.10;1.00;;;8.60;99.90;;;;;;5170311;28;20040;-68
2023/04/17 03:04:49;;;;;;;1.25;1.17;;;8.60;99.90;;;;;;5164004;28;20060;-68
2023/04/17 03:07:22;;;;;;;3.05;2.20;;;8.60;99.90;;;;;;5155971;28;20038;-68
2023/04/17 03:09:56;;;;;;;2.15;1.95;;;8.60;99.90;;;;;;5171452;28;20063;-68
2023/04/17 03:12:27;;;;;;;1.88;1.38;;;8.60;99.90;;;;;;5169355;28;20148;-68
2023/04/17 03:15:01;;;;;;;2.30;2.17;;;8.60;99.90;;;;;;5167152;28;20042;-68
2023/04/17 03:17:34;;;;;;;1.85;1.75;;;8.60;99.90;;;;;;5156037;28;20044;-68
2023/04/17 03:20:10;;;;;;;1.33;1.23;;;8.70;99.90;;;;;;5153180;28;20030;-69
2023/04/17 03:22:41;;;;;;;3.60;1.23;;;8.70;99.90;;;;;;5119830;28;20038;-68
2023/04/17 03:25:15;;;;;;;1.45;1.38;;;8.70;99.90;;;;;;5153190;28;20050;-68
2023/04/17 03:27:50;;;;;;;1.90;1.75;;;8.70;99.90;;;;;;5138207;28;20030;-68
2023/04/17 03:30:22;;;;;;;0.95;0.93;;;8.70;99.90;;;;;;5169391;28;20034;-68
2023/04/17 03:32:55;;;;;;;0.73;0.73;;;8.70;99.90;;;;;;5170153;28;20036;-67
2023/04/17 03:35:27;;;;;;;0.70;0.70;;;8.70;99.90;;;;;;5168312;28;20037;-67
2023/04/17 03:37:59;;;;;;;1.30;1.20;;;8.60;99.90;;;;;;5152909;28;20036;-67
2023/04/17 03:40:32;;;;;;;1.55;1.45;;;8.60;99.90;;;;;;5139685;28;20050;-67
2023/04/17 03:43:08;;;;;;;1.80;1.70;;;8.60;99.90;;;;;;5171760;28;20297;-68
2023/04/17 03:45:45;;;;;;;1.20;1.17;;;8.50;99.90;;;;;;5153170;28;20452;-68
2023/04/17 03:48:17;;;;;;;1.02;1.00;;;8.50;99.90;;;;;;5138451;28;20091;-68
2023/04/17 03:50:52;;;;;;;0.85;0.85;;;8.50;99.90;;;;;;5152754;28;20052;-68
2023/04/17 03:53:25;;;;;;;0.70;0.70;;;8.40;99.90;;;;;;5143619;28;20038;-68
2023/04/17 03:55:57;;;;;;;1.15;0.98;;;8.40;99.90;;;;;;5155214;28;20044;-68
2023/04/17 03:58:30;;;;;;;1.10;1.10;;;8.40;99.90;;;;;;5154996;28;20529;-68
2023/04/17 04:01:02;;;;;;;1.05;0.93;;;8.40;99.90;;;;;;5137913;28;20025;-68
2023/04/17 04:03:34;;;;;;;1.02;1.02;;;8.40;99.90;;;;;;5171903;28;20045;-68
2023/04/17 04:06:11;;;;;;;1.35;1.20;;;8.40;99.90;;;;;;5145043;28;20054;-68
2023/04/17 04:08:45;;;;;;;1.98;1.88;;;8.40;99.90;;;;;;5156526;28;20050;-68
2023/04/17 04:11:16;;;;;;;0.90;0.90;;;8.40;99.90;;;;;;5170929;28;20565;-68
2023/04/17 04:13:47;;;;;;;1.25;1.15;;;8.40;99.90;;;;;;5150222;28;20030;-67
2023/04/17 04:16:18;;;;;;;0.65;0.65;;;8.40;99.90;;;;;;5141382;28;20048;-67
2023/04/17 04:18:55;;;;;;;1.67;1.10;;;8.40;99.90;;;;;;5172616;28;20028;-67
2023/04/17 04:21:29;;;;;;;1.30;1.20;;;8.40;99.90;;;;;;5155352;28;20034;-67
2023/04/17 04:24:03;;;;;;;1.17;1.13;;;8.40;99.90;;;;;;5137096;28;20068;-66
2023/04/17 04:26:39;;;;;;;1.23;1.20;;;8.40;99.90;;;;;;5150559;28;20032;-68
2023/04/17 04:29:12;;;;;;;1.40;1.33;;;8.50;99.90;;;;;;5141367;28;20050;-68
2023/04/17 04:31:49;;;;;;;1.58;1.50;;;8.50;99.90;;;;;;5147426;28;20564;-68
2023/04/17 04:34:24;;;;;;;1.10;1.10;;;8.60;99.90;;;;;;5154353;28;20293;-68
2023/04/17 04:37:03;;;;;;;1.55;1.50;;;8.60;99.90;;;;;;5156849;28;20046;-68
2023/04/17 04:39:38;;;;;;;1.48;1.35;;;8.70;99.90;;;;;;5172314;28;20052;-68
2023/04/17 04:42:11;;;;;;;;;;;8.70;99.90;;;;;;5154393;28;20036;-66
2023/04/17 04:44:47;;;;;;;1.55;1.45;;;8.80;99.90;;;;;;5148509;28;20279;-67
2023/04/17 04:47:21;;;;;;;1.40;1.30;;;8.80;99.90;;;;;;5171372;28;20033;-66
2023/04/17 04:49:52;;;;;;;1.20;1.13;;;8.90;99.90;;;;;;5169984;28;20041;-67
2023/04/17 04:52:25;;;;;;;0.88;0.88;;;8.90;99.90;;;;;;5138590;28;20044;-67
2023/04/17 04:54:56;;;;;;;1.33;1.15;;;9.00;99.90;;;;;;5140458;28;20042;-67
2023/04/17 04:57:28;;;;;;;1.45;1.23;;;9.00;99.90;;;;;;5153835;28;20038;-67
2023/04/17 05:00:00;;;;;;;1.42;1.30;;;9.00;99.90;;;;;;5150168;28;20038;-67
2023/04/17 05:02:31;;;;;;;1.58;1.23;;;9.10;99.90;;;;;;5151326;28;20048;-67
2023/04/17 05:05:03;;;;;;;0.85;0.85;;;9.10;99.90;;;;;;5154817;28;20052;-69
2023/04/17 05:07:37;;;;;;;2.05;1.63;;;9.10;99.90;;;;;;5129293;28;20045;-68
2023/04/17 05:10:11;;;;;;;1.88;1.75;;;9.20;99.90;;;;;;5152640;28;20030;-67
2023/04/17 05:12:43;;;;;;;1.53;1.43;;;9.30;99.90;;;;;;5171076;28;20030;-67
2023/04/17 05:15:16;;;;;;;1.33;1.23;;;9.30;99.90;;;;;;5167370;28;20267;-67
2023/04/17 05:17:53;;;;;;;1.58;1.35;;;9.30;99.90;;;;;;5151505;28;20574;-67
2023/04/17 05:20:27;;;;;;;1.25;1.20;;;9.30;99.90;;;;;;5170261;28;20045;-66
2023/04/17 05:22:58;;;;;;;2.17;1.80;;;9.40;99.90;;;;;;5149552;28;20331;-67
2023/04/17 05:25:29;;;;;;;1.63;1.52;;;9.50;99.90;;;;;;5132874;28;20026;-67
2023/04/17 05:28:01;;;;;;;1.35;1.25;;;9.60;99.90;;;;;;5152737;28;20040;-67
2023/04/17 05:30:32;;;;;;;1.60;1.50;;;9.60;99.90;;;;;;5153653;28;20038;-67
2023/04/17 05:33:04;;;;;;;1.35;1.25;;;9.70;99.90;;;;;;5167088;28;20389;-67
2023/04/17 05:35:37;;;;;;;1.08;1.08;;;9.80;99.90;;;;;;5168378;28;20028;-67
2023/04/17 05:38:10;;;;;;;1.03;1.03;;;9.90;99.90;;;;;;5144627;28;20040;-67
2023/04/17 05:40:41;;;;;;;1.80;1.70;;;9.90;99.90;;;;;;5149905;28;20270;-67
2023/04/17 05:43:12;;;;;;;0.65;0.65;;;9.90;99.90;;;;;;5179301;28;20052;-68
2023/04/17 05:45:50;;;;;;;1.25;1.17;;;9.90;99.90;;;;;;5133806;28;20038;-68
2023/04/17 05:48:24;;;;;;;2.80;1.63;;;10.00;99.90;;;;;;5137119;28;20029;-69
2023/04/17 05:51:00;;;;;;;1.23;1.23;;;10.00;99.90;;;;;;5137760;28;20046;-67
2023/04/17 05:53:36;;;;;;;1.13;1.02;;;10.10;92.10;;;;;;5170694;28;20032;-66
2023/04/17 05:56:10;;;;;;;1.65;1.55;;;10.30;98.90;;;;;;5153294;28;20034;-67
2023/04/17 05:58:41;;;;;;;1.85;1.40;;;10.20;57.10;;;;;;5152563;28;20157;-68
2023/04/17 06:01:15;;;;;;;1.88;1.67;;;10.30;67.30;;;;;;5149363;28;20037;-68
2023/04/17 06:03:49;;;;;;;1.75;1.63;;;10.30;53.50;;;;;;5152864;28;20040;-67
2023/04/17 06:06:25;;;;;;;1.50;1.38;;;10.40;30.20;;;;;;5126083;28;20052;-68
2023/04/17 06:08:56;;;;;;;1.17;1.08;;;10.40;3.80;;;;;;5166766;28;20050;-68
2023/04/17 06:11:27;;;;;;;1.25;1.15;;;10.50;17.10;;;;;;5150258;28;20037;-67
2023/04/17 06:13:58;;;;;;;1.15;1.05;;;10.50;5.90;;;;;;5180683;28;20042;-68
2023/04/17 06:16:30;;;;;;;1.67;1.58;;;10.50;17.10;;;;;;5167014;28;20037;-68
2023/04/17 06:19:08;;;;;;;2.05;1.85;;;10.70;7.80;;;;;;5172285;28;20406;-68
2023/04/17 06:21:39;;;;;;;1.20;1.10;;;10.70;9.00;;;;;;5156174;28;20046;-68
2023/04/17 06:24:12;;;;;;;1.08;1.00;;;10.70;1.00;;;;;;5170794;28;20242;-67
2023/04/17 06:26:49;;;;;;;1.63;1.52;;;10.80;1.00;;;;;;5139252;28;20052;-67
2023/04/17 06:29:23;;;;;;;1.63;1.52;;;10.70;1.00;;;;;;5166716;28;20041;-68
2023/04/17 06:32:02;;;;;;;1.10;1.05;;;10.80;1.00;;;;;;5153712;28;20042;-68
2023/04/17 06:34:38;;;;;;;0.95;0.95;;;11.00;1.00;;;;;;5155833;28;20380;-68
2023/04/17 06:37:17;;;;;;;1.55;1.45;;;10.90;1.00;;;;;;5141188;28;20469;-68
2023/04/17 06:39:51;;;;;;;2.45;2.25;;;10.90;1.00;;;;;;5142451;28;20034;-68
2023/04/17 06:42:22;;;;;;;2.58;1.10;;;11.00;1.00;;;;;;5155151;28;20021;-68
2023/04/17 06:44:53;;;;;;;1.35;1.25;;;11.10;1.00;;;;;;5154365;28;20617;-68
2023/04/17 06:47:27;;;;;;;1.13;1.02;;;11.10;1.00;;;;;;5152106;28;20064;-68
2023/04/17 06:50:01;;;;;;;1.95;1.77;;;11.00;1.00;;;;;;5172941;28;20068;-68
2023/04/17 06:52:34;;;;;;;1.00;0.93;;;10.80;1.00;;;;;;5139293;28;20048;-68
2023/04/17 06:55:06;;;;;;;1.40;1.27;;;10.70;1.00;;;;;;5172288;28;20202;-68
2023/04/17 06:57:40;;;;;;;1.55;1.45;;;10.70;1.00;;;;;;5137305;28;20029;-68
2023/04/17 07:00:14;;;;;;;2.35;2.25;;;10.70;1.00;;;;;;5153126;28;20132;-68
2023/04/17 07:02:49;;;;;;;2.30;2.10;;;10.80;20.50;;;;;;5081413;28;2099125;-68
2023/04/17 07:05:27;;;;;;;1.52;1.42;;;10.90;1.00;;;;;;5162314;28;20054;-68
2023/04/17 07:08:01;;;;;;;1.17;1.08;;;10.90;1.00;;;;;;5163997;28;20034;-67
2023/04/17 07:10:35;;;;;;;1.63;1.38;;;10.90;1.00;;;;;;5154979;28;20037;-68
2023/04/17 07:13:06;;;;;;;2.05;1.33;;;11.10;1.00;;;;;;5152485;28;20026;-68
2023/04/17 07:15:38;;;;;;;3.63;2.13;;;11.10;1.00;;;;;;5162268;28;20026;-68
2023/04/17 07:18:09;;;;;;;1.30;1.20;;;11.10;1.00;;;;;;5155949;28;20036;-68
2023/04/17 07:20:45;;;;;;;1.60;1.50;;;11.10;1.00;;;;;;5146615;28;20034;-68
2023/04/17 07:23:19;;;;;;;1.70;1.60;;;11.30;1.00;;;;;;5151789;28;20032;-68
2023/04/17 07:25:50;;;;;;;1.85;1.75;;;11.30;1.00;;;;;;5142757;28;20030;-68
2023/04/17 07:28:26;;;;;;;2.03;1.92;;;11.30;1.00;;;;;;5166535;28;20136;-68
2023/04/17 07:31:07;;;;;;;1.17;1.17;;;11.40;1.00;;;;;;5167925;28;20026;-67
2023/04/17 07:33:41;;;;;;;1.70;1.60;;;11.50;1.00;;;;;;5170358;28;20318;-67
2023/04/17 07:36:12;;;;;;;1.35;1.25;;;11.40;1.00;;;;;;5148126;28;20141;-68
2023/04/17 07:38:48;;;;;;;2.75;2.20;;;11.60;1.00;;;;;;5118710;28;20050;-68
2023/04/17 07:41:21;;;;;;;1.33;1.20;;;11.60;1.00;;;;;;5169744;28;20040;-69
2023/04/17 07:43:57;;;;;;;1.38;1.27;;;11.60;1.00;;;;;;5139843;28;20040;-68
2023/04/17 07:46:28;;;;;;;1.60;1.50;;;11.80;1.00;;;;;;5152258;28;20373;-68
2023/04/17 07:49:00;;;;;;;2.45;2.08;;;11.70;1.00;;;;;;5173471;28;20037;-67
2023/04/17 07:51:31;;;;;;;1.38;1.30;;;11.90;1.00;;;;;;5166512;28;20036;-68
2023/04/17 07:54:03;;;;;;;1.13;1.10;;;12.00;1.00;;;;;;5142133;28;20219;-67
2023/04/17 07:56:35;;;;;;;1.63;1.52;;;12.10;1.00;;;;;;5155718;28;20025;-68
2023/04/17 07:59:08;;;;;;;2.15;0.95;;;12.00;1.00;;;;;;5173089;28;20026;-67
2023/04/17 08:01:42;;;;;;;1.73;1.60;;;11.80;1.00;;;;;;5132313;28;20256;-67
2023/04/17 08:04:14;;;;;;;;;;;11.70;1.00;;;;;;5126852;28;20048;-68
2023/04/17 08:06:45;;;;;;;1.70;1.40;;;11.80;1.00;;;;;;5154989;28;20107;-67
2023/04/17 08:09:17;;;;;;;2.15;1.98;;;11.90;1.00;;;;;;5168231;28;20034;-66
2023/04/17 08:11:48;;;;;;;2.63;2.10;;;12.00;1.00;;;;;;5150902;28;20030;-67
2023/04/17 08:14:19;;;;;;;1.50;1.40;;;11.80;1.00;;;;;;5151770;28;20144;-68
2023/04/17 08:16:56;;;;;;;1.52;1.42;;;11.80;1.00;;;;;;5167079;28;20034;-67
2023/04/17 08:19:28;;;;;;;1.73;1.63;;;11.80;1.00;;;;;;5170926;28;20160;-66
2023/04/17 08:22:06;;;;;;;2.35;2.00;;;12.00;1.00;;;;;;5171692;28;20025;-66
2023/04/17 08:24:39;;;;;;;1.70;1.60;;;12.00;1.00;;;;;;5137366;28;20036;-68
2023/04/17 08:27:12;;;;;;;2.33;2.10;;;12.00;1.00;;;;;;5170478;28;20302;-67
2023/04/17 08:29:46;;;;;;;1.67;1.58;;;12.10;1.00;;;;;;5154558;28;20026;-68
2023/04/17 08:32:23;;;;;;;1.58;1.50;;;12.20;1.00;;;;;;5167480;28;20037;-67
2023/04/17 08:34:59;;;;;;;2.28;2.08;;;12.30;1.00;;;;;;5137245;28;20030;-67
2023/04/17 08:37:34;;;;;;;1.30;1.20;;;12.30;1.00;;;;;;5170017;28;20034;-69
2023/04/17 08:40:10;;;;;;;2.40;2.20;;;12.40;1.00;;;;;;5169674;28;20325;-66
2023/04/17 08:42:48;;;;;;;1.95;1.85;;;12.60;1.00;;;;;;5170590;28;20033;-66
2023/04/17 08:45:25;;;;;;;1.98;1.77;;;12.60;1.00;;;;;;5149070;28;20045;-67
2023/04/17 08:48:00;;;;;;;1.70;1.60;;;12.70;1.00;;;;;;5171590;28;20228;-67
2023/04/17 08:50:32;;;;;;;1.90;1.80;;;13.00;1.00;;;;;;5153798;28;20041;-66
2023/04/17 08:53:03;;;;;;;1.73;1.63;;;13.20;99.90;;;;;;5153330;28;20046;-67
2023/04/17 08:55:35;;;;;;;2.33;2.03;;;13.10;99.90;;;;;;5171687;28;20030;-67
2023/04/17 08:58:08;;;;;;;1.73;1.63;;;13.30;1.00;;;;;;5171038;28;20195;-66
2023/04/17 09:00:46;;;;;;;12.73;2.10;;;13.40;1.00;;;;;;5144158;28;20041;-67
2023/04/17 09:03:20;;;;;;;2.15;2.00;;;13.50;3.80;;;;;;5170169;28;20035;-67
2023/04/17 09:05:59;;;;;;;1.98;1.80;;;13.70;1.00;;;;;;5156264;28;20049;-67
2023/04/17 09:08:30;;;;;;;1.73;1.63;;;13.70;1.00;;;;;;5153062;28;20033;-67
2023/04/17 09:11:01;;;;;;;3.63;1.80;;;13.80;1.00;;;;;;5170710;28;20018;-66
2023/04/17 09:13:39;;;;;;;1.70;1.60;;;13.70;99.90;;;;;;5172026;28;20033;-67
2023/04/17 09:16:18;;;;;;;1.58;1.48;;;13.80;1.00;;;;;;5141924;28;20505;-68
2023/04/17 09:18:49;;;;;;;1.85;1.70;;;14.00;1.00;;;;;;5150446;28;20033;-67
2023/04/17 09:21:27;;;;;;;1.73;1.63;;;13.90;28.50;;;;;;5150572;28;20029;-68
2023/04/17 09:23:59;;;;;;;2.40;2.20;;;14.20;11.40;;;;;;5133369;28;20048;-67
2023/04/17 09:26:32;;;;;;;1.15;1.08;;;14.50;1.00;;;;;;5158858;28;20041;-67
2023/04/17 09:29:13;;;;;;;1.85;1.67;;;14.70;1.00;;;;;;5148821;28;20034;-67
2023/04/17 09:31:45;;;;;;;2.60;2.40;;;14.60;1.00;;;;;;5150320;28;20020;-67
2023/04/17 09:34:16;;;;;;;2.00;1.90;;;14.60;99.90;;;;;;5168387;28;20049;-67
2023/04/17 09:36:53;;;;;;;3.03;2.83;;;14.90;99.90;;;;;;5170201;28;20310;-65
2023/04/17 09:39:27;;;;;;;1.85;1.75;;;14.60;99.90;;;;;;5140109;28;20226;-66
2023/04/17 09:42:02;;;;;;;5.53;2.60;;;14.80;99.90;;;;;;5168508;28;20041;-67
2023/04/17 09:44:36;;;;;;;2.30;2.10;;;14.50;1.00;;;;;;5151298;28;20318;-67
2023/04/17 09:47:13;;;;;;;1.92;1.67;;;14.60;1.00;;;;;;5126159;28;20021;-67
2023/04/17 09:49:56;;;;;;;1.45;1.38;;;15.00;1.00;;;;;;5144147;28;20056;-66
2023/04/17 09:52:28;;;;;;;2.30;2.05;;;14.80;1.00;;;;;;5148546;28;20065;-67
2023/04/17 09:55:05;;;;;;;1.90;1.80;;;14.60;1.00;;;;;;5137419;28;20037;-67
2023/04/17 09:57:37;;;;;;;1.45;1.33;;;14.60;1.00;;;;;;5148050;28;20181;-67
2023/04/17 10:00:13;;;;;;;2.50;1.98;;;14.40;99.90;;;;;;5147152;28;20026;-68
2023/04/17 10:02:50;;;;;;;1.75;1.65;;;14.60;1.00;;;;;;5155425;28;20257;-67
2023/04/17 10:05:31;;;;;;;2.55;1.88;;;14.60;1.00;;;;;;5159849;28;20054;-68
2023/04/17 10:08:02;;;;;;;2.28;1.90;;;15.10;1.00;;;;;;5140721;28;20044;-68
2023/04/17 10:10:35;;;;;;;1.77;1.67;;;15.00;1.00;;;;;;5168545;28;20049;-68
2023/04/17 10:13:12;;;;;;;2.60;2.40;;;15.40;1.00;;;;;;5136855;28;20040;-66
2023/04/17 10:15:45;;;;;;;1.67;1.58;;;15.70;1.00;;;;;;5165278;28;20222;-66
2023/04/17 10:18:23;;;;;;;2.07;1.90;;;15.20;1.00;;;;;;5152272;28;20034;-67
2023/04/17 10:20:54;;;;;;;1.67;1.58;;;15.40;1.00;;;;;;5144343;28;20314;-67
2023/04/17 10:23:34;;;;;;;2.03;1.90;;;15.10;1.00;;;;;;5152530;28;20416;-66
2023/04/17 10:26:26;;;;;;;1.88;1.77;;;15.90;99.90;;;;;;5170228;28;20113;-67
2023/04/17 10:28:59;;;;;;;2.33;2.17;;;16.70;1.00;;;;;;5151505;28;20515;-67
2023/04/17 10:32:07;;;;;;;2.00;1.90;;;16.60;1.00;;;;;;5132692;28;20246;-67
2023/04/17 10:34:39;;;;;;;2.20;2.08;;;17.00;99.90;;;;;;5169130;28;20140;-67
2023/04/17 10:37:16;;;;;;;1.80;1.70;;;17.40;99.90;;;;;;5169227;28;20021;-70
2023/04/17 10:40:01;;;;;;;2.22;1.70;;;17.20;1.00;;;;;;5135889;28;20038;-66
2023/04/17 10:42:34;;;;;;;2.67;2.47;;;17.50;1.00;;;;;;5158065;28;20158;-67
2023/04/17 10:45:17;;;;;;;2.13;2.03;;;18.10;1.00;;;;;;5153092;28;20034;-67
2023/04/17 10:47:59;;;;;;;2.00;1.88;;;18.00;99.90;;;;;;5170672;28;20377;-68
2023/04/17 10:50:30;;;;;;;1.80;1.60;;;17.60;99.90;;;;;;5133318;28;20315;-67
2023/04/17 10:53:06;;;;;;;2.10;2.00;;;17.60;1.00;;;;;;5168956;28;20361;-66
2023/04/17 10:55:51;;;;;;;2.97;2.67;;;17.90;1.00;;;;;;5169113;28;20022;-67
2023/04/17 10:58:24;;;;;;;2.40;2.25;;;17.90;1.00;;;;;;5135042;28;20135;-67
2023/04/17 11:01:00;;;;;;;2.85;2.65;;;18.40;99.90;;;;;;5129358;28;20032;-67
2023/04/17 11:03:38;;;;;;;2.05;1.95;;;18.40;99.90;;;;;;5149070;28;20038;-67
2023/04/17 11:06:16;;;;;;;2.35;2.15;;;17.50;99.90;;;;;;5163530;28;20147;-68
2023/04/17 11:08:48;;;;;;;2.35;2.15;;;18.60;99.90;;;;;;5154601;28;20312;-67
2023/04/17 11:11:20;;;;;;;2.30;2.10;;;19.10;95.80;;;;;;5156891;28;20440;-67
2023/04/17 11:13:53;;;;;;;2.42;2.22;;;19.00;1.00;;;;;;5173084;28;20344;-67
2023/04/17 11:16:27;;;;;;;1.97;1.87;;;18.80;1.00;;;;;;5134517;28;20353;-66
2023/04/17 11:18:58;;;;;;;1.75;1.65;;;18.00;1.00;;;;;;5169744;28;20167;-67
2023/04/17 11:21:30;;;;;;;2.03;1.92;;;18.70;1.00;;;;;;5173380;28;20021;-66
2023/04/17 11:24:04;;;;;;;2.38;2.15;;;18.90;1.00;;;;;;5170960;28;20409;-67
2023/04/17 11:26:47;;;;;;;2.17;2.00;;;18.10;1.00;;;;;;5146504;28;20026;-67
2023/04/17 11:29:20;;;;;;;1.67;1.58;;;18.70;1.00;;;;;;5138269;28;20026;-67
2023/04/17 11:31:56;;;;;;;2.00;1.80;;;19.10;1.00;;;;;;5143625;28;20211;-68
2023/04/17 11:34:29;;;;;;;3.00;2.78;;;18.70;99.90;;;;;;5166152;28;20234;-66
2023/04/17 11:37:03;;;;;;;2.50;2.30;;;18.70;1.00;;;;;;5134296;28;20037;-66
2023/04/17 11:39:40;;;;;;;2.38;2.17;;;19.10;99.90;;;;;;5153931;28;20022;-67
2023/04/17 11:42:11;;;;;;;1.73;1.63;;;18.70;1.00;;;;;;5123919;28;20037;-68
2023/04/17 11:44:43;;;;;;;2.38;1.95;;;18.20;99.90;;;;;;5171295;28;20022;-67
2023/04/17 11:47:20;;;;;;;3.22;2.67;;;18.70;1.00;;;;;;5151341;28;20033;-67
2023/04/17 11:49:51;;;;;;;1.90;1.58;;;18.90;99.90;;;;;;5146741;28;20076;-67
2023/04/17 11:52:22;;;;;;;2.70;2.00;;;19.10;1.00;;;;;;5150618;28;20329;-65
2023/04/17 11:55:01;;;;;;;2.30;2.10;;;19.10;1.00;;;;;;5133202;28;20033;-66
2023/04/17 11:57:43;;;;;;;1.60;1.50;;;19.30;1.00;;;;;;5144268;28;20129;-67
2023/04/17 12:00:15;;;;;;;1.95;1.85;;;19.80;99.90;;;;;;5144955;28;20257;-66
2023/04/17 12:02:46;;;;;;;2.20;1.75;;;19.50;99.90;;;;;;5153050;28;20052;-65
2023/04/17 12:05:23;;;;;;;2.58;2.38;;;20.40;99.90;;;;;;5143703;28;20113;-67
2023/04/17 12:08:06;;;;;;;2.78;1.80;;;19.90;99.90;;;;;;5148944;28;20068;-65
2023/04/17 12:10:42;;;;;;;2.13;1.95;;;20.20;1.00;;;;;;5170946;28;20361;-66
2023/04/17 12:13:16;;;;;;;2.22;1.83;;;21.00;1.00;;;;;;5138432;28;20033;-67
2023/04/17 12:15:48;;;;;;;2.45;2.28;;;21.20;99.90;;;;;;5150679;28;20318;-67
2023/04/17 12:18:19;;;;;;;1.98;1.88;;;19.80;1.00;;;;;;5137906;28;20060;-67
2023/04/17 12:20:56;;;;;;;3.15;2.10;;;19.90;1.00;;;;;;5170757;28;20276;-67
2023/04/17 12:23:30;;;;;;;2.30;2.10;;;19.60;78.10;;;;;;5147358;28;20029;-65
2023/04/17 12:26:02;;;;;;;2.25;2.00;;;19.90;82.40;;;;;;5160647;28;20046;-66
2023/04/17 12:28:33;;;;;;;2.40;2.20;;;19.60;1.00;;;;;;5137041;28;20049;-66
2023/04/17 12:31:08;;;;;;;2.78;2.10;;;20.50;99.90;;;;;;5169421;28;20256;-67
2023/04/17 12:33:44;;;;;;;2.30;2.17;;;20.90;1.00;;;;;;5170508;28;20194;-67
2023/04/17 12:36:17;;;;;;;2.17;1.73;;;21.30;1.00;;;;;;5171314;28;20294;-67
2023/04/17 12:38:48;;;;;;;2.15;1.95;;;21.10;1.00;;;;;;5169256;28;20033;-66
2023/04/17 12:41:24;;;;;;;1.90;1.80;;;21.10;1.00;;;;;;5152151;28;20057;-66
2023/04/17 12:44:00;;;;;;;1.63;1.52;;;21.20;1.00;;;;;;5169801;28;20294;-67
2023/04/17 12:46:31;;;;;;;1.92;1.77;;;21.10;1.00;;;;;;5167583;28;20021;-68
2023/04/17 12:49:03;;;;;;;2.10;1.73;;;20.90;1.00;;;;;;5153122;28;20048;-66
2023/04/17 12:51:40;;;;;;;2.08;1.77;;;21.60;1.00;;;;;;5152176;28;20318;-67
2023/04/17 12:54:11;;;;;;;1.73;1.63;;;21.10;99.90;;;;;;5166717;28;20040;-69
2023/04/17 12:56:42;;;;;;;2.30;2.10;;;21.40;99.90;;;;;;5166804;28;20060;-66
2023/04/17 12:59:13;;;;;;;2.63;2.35;;;20.70;99.90;;;;;;5152401;28;20040;-67
2023/04/17 13:01:45;;;;;;;2.38;1.98;;;20.80;99.90;;;;;;5157358;28;20038;-68
2023/04/17 13:04:19;;;;;;;1.92;1.80;;;21.00;99.90;;;;;;5159670;28;20044;-66
2023/04/17 13:06:52;;;;;;;1.90;1.80;;;21.30;99.90;;;;;;5168464;28;20144;-68
2023/04/17 13:09:23;;;;;;;1.98;1.77;;;21.10;43.20;;;;;;5168998;28;20156;-67
2023/04/17 13:11:56;;;;;;;1.65;1.50;;;21.50;51.90;;;;;;5152287;28;20033;-68
2023/04/17 13:14:33;;;;;;;1.77;1.67;;;21.60;78.20;;;;;;5141006;28;20037;-68
2023/04/17 13:17:06;;;;;;;2.25;2.05;;;21.70;16.10;;;;;;5131129;28;20038;-69
2023/04/17 13:19:38;;;;;;;2.08;1.88;;;21.30;18.90;;;;;;5133237;28;20214;-67
2023/04/17 13:22:10;;;;;;;1.73;1.63;;;22.00;89.50;;;;;;5169535;28;20328;-67
2023/04/17 13:24:43;;;;;;;2.60;1.90;;;20.50;99.90;;;;;;5170806;28;20391;-68
2023/04/17 13:27:17;;;;;;;2.28;1.75;;;20.30;50.40;;;;;;5165025;28;20288;-67
2023/04/17 13:29:48;;;;;;;1.88;1.70;;;20.30;10.70;;;;;;5152865;28;20370;-68
2023/04/17 13:32:19;;;;;;;1.83;1.73;;;19.60;91.50;;;;;;5148747;28;20456;-68
2023/04/17 13:34:50;;;;;;;3.35;2.45;;;19.20;70.30;;;;;;5168169;28;20039;-65